Time;durP1;ratioP1;P1;durP2;ratioP2;P2;SDS_P1;SDS_P2;PMS_P1;PMS_P2;Temp;Humidity;BMP_temperature;BMP_pressure;BME280_temperature;BME280_humidity;BME280_pressure;Samples;Min_cycle;Max_cycle;Signal;HPM_P1;HPM_P2
2022/07/27 00:01:18;;;;;;;;;;;;;;;22.52;60.53;98511.03;1652469;85;21500;-79
2022/07/27 00:03:44;;;;;;;;;;;;;;;22.52;61.40;98515.10;1651429;85;20082;-79
2022/07/27 00:06:12;;;;;;;;;;;;;;;22.50;61.97;98511.28;1652760;85;20158;-79
2022/07/27 00:08:39;;;;;;;;;;;;;;;22.51;62.56;98503.98;1645607;85;20139;-79
2022/07/27 00:11:05;;;;;;;;;;;;;;;22.49;63.00;98500.20;1648550;85;20071;-80
2022/07/27 00:13:31;;;;;;;;;;;;;;;22.51;63.40;98500.73;1656565;85;21488;-78
2022/07/27 00:15:58;;;;;;;;;;;;;;;22.52;63.72;98506.97;1652123;87;20452;-78
2022/07/27 00:18:24;;;;;;;;;;;;;;;22.54;63.93;98493.95;1656925;85;20115;-78
2022/07/27 00:20:52;;;;;;;;;;;;;;;22.55;64.27;98484.75;1652504;85;20102;-78
2022/07/27 00:23:19;;;;;;;;;;;;;;;22.58;64.49;98478.23;1652165;87;20098;-77
2022/07/27 00:25:45;;;;;;;;;;;;;;;22.63;64.68;98476.11;1643862;87;21152;-78
2022/07/27 00:28:13;;;;;;;;;;;;;;;22.65;64.89;98487.48;1653779;85;20201;-78
2022/07/27 00:30:40;;;;;;;;;;;;;;;22.64;65.16;98485.31;1653132;85;20103;-78
2022/07/27 00:33:06;;;;;;;;;;;;;;;22.65;65.29;98486.95;1652092;87;20461;-78
2022/07/27 00:35:33;;;;;;;;;;;;;;;22.67;65.57;98493.45;1652051;85;20123;-78
2022/07/27 00:37:59;;;;;;;;;;;;;;;22.69;65.90;98487.20;1650147;85;21228;-78
2022/07/27 00:40:26;;;;;;;;;;;;;;;22.67;66.18;98486.67;1652582;85;20277;-78
2022/07/27 00:42:52;;;;;;;;;;;;;;;22.67;66.09;98496.16;1657290;85;20146;-78
2022/07/27 00:45:19;;;;;;;;;;;;;;;22.65;66.06;98510.53;1652158;86;20102;-78
2022/07/27 00:47:45;;;;;;;;;;;;;;;22.65;66.33;98521.38;1661572;85;20464;-78
2022/07/27 00:50:13;;;;;;;;;;;;;;;22.64;66.56;98536.00;1659460;85;21157;-78
2022/07/27 00:52:39;;;;;;;;;;;;;;;22.61;66.50;98546.81;1663133;85;20127;-78
2022/07/27 00:55:07;;;;;;;;;;;;;;;22.59;66.45;98553.05;1652042;85;20150;-78
2022/07/27 00:57:34;;;;;;;;;;;;;;;22.55;66.60;98553.86;1651892;85;20630;-79
2022/07/27 01:00:00;;;;;;;;;;;;;;;22.52;66.78;98558.47;1675832;85;20185;-79
2022/07/27 01:02:27;;;;;;;;;;;;;;;22.51;66.96;98575.80;1667973;85;21154;-79
2022/07/27 01:04:53;;;;;;;;;;;;;;;22.49;67.06;98575.26;1633179;88;20390;-79
2022/07/27 01:07:19;;;;;;;;;;;;;;;22.46;67.35;98573.08;1666343;85;20124;-78
2022/07/27 01:09:57;;;;;;;;;;;;;;;22.42;67.76;98570.64;1628146;86;20109;-78
2022/07/27 01:12:29;;;;;;;;;;;;;;;22.39;68.20;98568.47;1670749;85;20461;-78
2022/07/27 01:14:56;;;;;;;;;;;;;;;22.36;68.85;98567.11;1667451;85;21183;-78
2022/07/27 01:17:24;;;;;;;;;;;;;;;22.35;69.53;98566.00;1682752;85;20127;-78
2022/07/27 01:19:51;;;;;;;;;;;;;;;22.31;69.99;98554.91;1674026;85;20102;-78
2022/07/27 01:22:18;;;;;;;;;;;;;;;22.26;70.67;98548.13;1655565;85;20433;-78
2022/07/27 01:24:45;;;;;;;;;;;;;;;22.23;71.42;98545.95;1655257;85;20102;-79
2022/07/27 01:27:11;;;;;;;;;;;;;;;22.20;72.06;98538.89;1654647;85;21792;-78
2022/07/27 01:29:38;;;;;;;;;;;;;;;22.15;72.72;98532.92;1658105;85;20112;-79
2022/07/27 01:32:05;;;;;;;;;;;;;;;22.11;73.01;98529.11;1652688;85;20128;-78
2022/07/27 01:34:32;;;;;;;;;;;;;;;22.04;73.23;98526.67;1652598;85;20971;-78
2022/07/27 01:37:01;;;;;;;;;;;;;;;22.01;73.67;98526.38;1658710;85;20115;-78
2022/07/27 01:39:28;;;;;;;;;;;;;;;22.03;74.05;98529.09;1657264;85;21188;-78
2022/07/27 01:41:54;;;;;;;;;;;;;;;22.04;74.25;98527.20;1657226;85;20123;-78
2022/07/27 01:44:22;;;;;;;;;;;;;;;22.06;74.37;98524.50;1649241;85;20078;-77
2022/07/27 01:46:48;;;;;;;;;;;;;;;22.06;74.67;98521.79;1657180;85;20952;-78
2022/07/27 01:49:14;;;;;;;;;;;;;;;22.04;74.83;98516.37;1661013;85;20094;-78
2022/07/27 01:51:41;;;;;;;;;;;;;;;22.05;75.12;98523.42;1654443;85;21150;-78
2022/07/27 01:54:07;;;;;;;;;;;;;;;22.07;75.42;98534.80;1658893;85;20169;-79
2022/07/27 01:56:33;;;;;;;;;;;;;;;22.06;75.54;98533.98;1655237;85;20144;-78
2022/07/27 01:58:59;;;;;;;;;;;;;;;22.03;75.80;98524.23;1659399;85;20135;-79
2022/07/27 02:01:26;;;;;;;;;;;;;;;21.99;76.12;98525.30;1662471;85;20150;-78
2022/07/27 02:03:52;;;;;;;;;;;;;;;21.97;76.41;98516.64;1668306;85;21144;-78
2022/07/27 02:06:19;;;;;;;;;;;;;;;21.94;76.59;98509.58;1654755;85;20090;-78
2022/07/27 02:08:46;;;;;;;;;;;;;;;21.92;76.79;98519.33;1662408;85;20169;-78
2022/07/27 02:13:57;;;;;;;;;;;;;;;21.87;77.09;98516.61;1664845;85;20091;-78
2022/07/27 02:16:24;;;;;;;;;;;;;;;21.85;77.30;98521.42;1663154;85;21521;-78
2022/07/27 02:18:50;;;;;;;;;;;;;;;21.83;77.45;98516.82;1670801;85;20451;-78
2022/07/27 02:21:16;;;;;;;;;;;;;;;21.82;77.63;98513.03;1659162;85;20149;-78
2022/07/27 02:23:43;;;;;;;;;;;;;;;21.80;77.83;98516.52;1659579;85;20581;-78
2022/07/27 02:26:10;;;;;;;;;;;;;;;21.79;78.00;98513.56;1659623;85;20182;-78
2022/07/27 02:28:38;;;;;;;;;;;;;;;21.77;78.05;98515.16;1661710;85;21214;-77
2022/07/27 02:31:04;;;;;;;;;;;;;;;21.75;78.23;98516.51;1659541;85;20090;-78
2022/07/27 02:33:31;;;;;;;;;;;;;;;21.75;78.51;98515.16;1659763;85;20081;-78
2022/07/27 02:35:57;;;;;;;;;;;;;;;21.74;78.90;98517.61;1659574;85;20189;-78
2022/07/27 02:38:24;;;;;;;;;;;;;;;21.72;79.16;98515.71;1659350;85;20102;-78
2022/07/27 02:40:51;;;;;;;;;;;;;;;21.75;79.32;98514.63;1660530;85;21175;-77
2022/07/27 02:43:18;;;;;;;;;;;;;;;21.75;79.27;98514.63;1659555;85;20153;-77
2022/07/27 02:45:44;;;;;;;;;;;;;;;21.72;79.44;98511.65;1659634;85;20423;-78
2022/07/27 02:48:10;;;;;;;;;;;;;;;21.73;79.63;98508.67;1668050;85;20135;-77
2022/07/27 02:50:36;;;;;;;;;;;;;;;21.76;79.83;98503.27;1671576;85;20187;-79
2022/07/27 02:53:02;;;;;;;;;;;;;;;21.77;79.94;98504.34;1659348;85;20757;-77
2022/07/27 02:55:30;;;;;;;;;;;;;;;21.81;79.85;98500.03;1664171;85;20087;-78
2022/07/27 02:57:56;;;;;;;;;;;;;;;21.84;79.43;98499.51;1660600;85;20122;-77
2022/07/27 03:00:24;;;;;;;;;;;;;;;21.80;79.13;98507.05;1656403;85;20156;-78
2022/07/27 03:02:50;;;;;;;;;;;;;;;21.77;78.98;98510.31;1659678;85;20092;-77
2022/07/27 03:05:17;;;;;;;;;;;;;;;21.78;78.96;98514.63;1666867;85;21160;-78
2022/07/27 03:07:45;;;;;;;;;;;;;;;21.78;79.10;98515.45;1652069;85;20090;-77
2022/07/27 03:10:11;;;;;;;;;;;;;;;21.80;79.15;98520.05;1652113;85;20090;-77
2022/07/27 03:12:39;;;;;;;;;;;;;;;21.79;79.26;98526.56;1653349;85;20718;-76
2022/07/27 03:15:08;;;;;;;;;;;;;;;21.78;79.38;98530.87;1633531;85;20115;-77
2022/07/27 03:17:35;;;;;;;;;;;;;;;21.75;79.44;98532.75;1665697;85;21143;-78
2022/07/27 03:20:02;;;;;;;;;;;;;;;21.73;79.52;98530.85;1653693;85;20122;-78
2022/07/27 03:22:31;;;;;;;;;;;;;;;21.71;79.66;98533.02;1654030;85;20090;-78
2022/07/27 03:24:58;;;;;;;;;;;;;;;21.71;79.77;98528.42;1649349;85;20108;-78
2022/07/27 03:27:24;;;;;;;;;;;;;;;21.72;79.72;98532.73;1664437;85;20099;-79
2022/07/27 03:29:51;;;;;;;;;;;;;;;21.69;79.61;98531.91;1647612;85;22083;-77
2022/07/27 03:32:18;;;;;;;;;;;;;;;21.68;79.74;98545.72;1636758;86;20097;-77
2022/07/27 03:34:44;;;;;;;;;;;;;;;21.69;79.90;98558.98;1667549;85;20092;-78
2022/07/27 03:37:10;;;;;;;;;;;;;;;21.69;80.13;98562.25;1649016;85;20424;-78
2022/07/27 03:39:37;;;;;;;;;;;;;;;21.67;80.20;98570.61;1669420;84;20124;-78
2022/07/27 03:42:04;;;;;;;;;;;;;;;21.67;80.43;98575.20;1649045;85;21159;-78
2022/07/27 03:44:30;;;;;;;;;;;;;;;21.68;80.53;98577.67;1632465;86;20089;-80
2022/07/27 03:46:57;;;;;;;;;;;;;;;21.70;80.53;98575.50;1675203;84;20169;-78
2022/07/27 03:49:24;;;;;;;;;;;;;;;21.75;80.53;98580.12;1666692;84;20678;-78
2022/07/27 03:51:50;;;;;;;;;;;;;;;21.76;80.58;98579.05;1648219;85;20154;-78
2022/07/27 03:54:17;;;;;;;;;;;;;;;21.76;80.65;98584.47;1647464;85;21539;-79
2022/07/27 03:56:44;;;;;;;;;;;;;;;21.78;80.75;98587.72;1664587;84;20087;-78
2022/07/27 03:59:11;;;;;;;;;;;;;;;21.78;80.70;98588.54;1663103;85;20582;-78
2022/07/27 04:01:38;;;;;;;;;;;;;;;21.81;80.60;98596.14;1667007;85;20130;-78
2022/07/27 04:04:04;;;;;;;;;;;;;;;21.83;80.55;98589.09;1676206;85;20504;-78
2022/07/27 04:06:32;;;;;;;;;;;;;;;21.84;80.43;98586.67;1660934;85;21142;-78
2022/07/27 04:08:58;;;;;;;;;;;;;;;21.85;80.38;98591.81;1656490;85;20102;-78
2022/07/27 04:11:25;;;;;;;;;;;;;;;21.86;80.28;98596.19;1652253;85;20241;-78
2022/07/27 04:13:51;;;;;;;;;;;;;;;21.87;80.24;98592.95;1650686;85;20127;-78
2022/07/27 04:16:17;;;;;;;;;;;;;;;21.86;80.08;98594.84;1653069;85;20646;-80
2022/07/27 04:18:44;;;;;;;;;;;;;;;21.86;80.11;98592.66;1661934;85;21299;-78
2022/07/27 04:21:10;;;;;;;;;;;;;;;21.90;80.09;98597.84;1648000;85;20094;-78
2022/07/27 04:23:37;;;;;;;;;;;;;;;21.89;79.81;98593.49;1650666;85;20645;-79
2022/07/27 04:26:03;;;;;;;;;;;;;;;21.87;79.92;98593.77;1650769;85;20126;-79
2022/07/27 04:28:31;;;;;;;;;;;;;;;21.87;80.12;98586.19;1650013;85;20484;-79
2022/07/27 04:30:57;;;;;;;;;;;;;;;21.87;80.23;98589.71;1653582;85;21156;-79
2022/07/27 04:33:24;;;;;;;;;;;;;;;21.88;80.24;98589.14;1657226;85;20114;-80
2022/07/27 04:35:50;;;;;;;;;;;;;;;21.86;80.27;98593.48;1650417;85;20400;-78
2022/07/27 04:38:17;;;;;;;;;;;;;;;21.86;80.36;98592.13;1650648;85;20146;-80
2022/07/27 04:40:43;;;;;;;;;;;;;;;21.88;80.37;98589.97;1651063;85;20090;-79
2022/07/27 04:43:09;;;;;;;;;;;;;;;21.87;80.37;98589.71;1650933;85;21776;-79
2022/07/27 04:45:36;;;;;;;;;;;;;;;21.87;80.40;98595.12;1652492;85;20087;-79
2022/07/27 04:48:07;;;;;;;;;;;;;;;21.87;80.46;98591.06;1655047;85;20106;-79
2022/07/27 04:50:38;;;;;;;;;;;;;;;21.88;80.65;98594.03;1653390;85;20158;-78
2022/07/27 04:53:04;;;;;;;;;;;;;;;21.90;80.70;98593.78;1632546;85;20102;-80
2022/07/27 04:55:31;;;;;;;;;;;;;;;21.90;80.68;98598.63;1650673;85;21120;-79
2022/07/27 04:57:57;;;;;;;;;;;;;;;21.93;80.65;98595.94;1650228;85;20176;-78
2022/07/27 05:00:24;;;;;;;;;;;;;;;21.93;80.65;98596.75;1658401;85;20092;-72
2022/07/27 05:02:50;;;;;;;;;;;;;;;21.93;80.51;98602.17;1667060;85;20118;-73
2022/07/27 05:05:17;;;;;;;;;;;;;;;21.89;80.50;98601.08;1652131;85;20195;-74
2022/07/27 05:07:44;;;;;;;;;;;;;;;21.91;80.73;98599.45;1652010;85;21827;-75
2022/07/27 05:10:11;;;;;;;;;;;;;;;21.95;80.88;98604.06;1657789;85;20100;-74
2022/07/27 05:12:37;;;;;;;;;;;;;;;21.95;80.68;98602.71;1674346;85;20504;-75
2022/07/27 05:15:04;;;;;;;;;;;;;;;21.89;80.80;98605.67;1651339;85;20078;-74
2022/07/27 05:17:34;;;;;;;;;;;;;;;21.84;80.93;98614.56;1665151;85;20154;-80
2022/07/27 05:20:00;;;;;;;;;;;;;;;21.81;81.17;98615.63;1662188;85;21153;-73
2022/07/27 05:22:27;;;;;;;;;;;;;;;;;;1656180;85;20185;-71
2022/07/27 05:24:53;;;;;;;;;;;;;;;21.84;81.28;98613.22;1664106;85;20195;-72
2022/07/27 05:27:20;;;;;;;;;;;;;;;21.83;81.32;98613.45;1652792;85;20142;-73
2022/07/27 05:29:46;;;;;;;;;;;;;;;21.87;81.33;98611.91;1662487;85;20428;-72
2022/07/27 05:32:12;;;;;;;;;;;;;;;21.88;81.33;98618.39;1660475;85;21152;-72
2022/07/27 05:34:40;;;;;;;;;;;;;;;21.85;81.11;98620.77;1651484;85;20110;-72
2022/07/27 05:37:07;;;;;;;;;;;;;;;21.84;81.12;98614.56;1656077;85;20178;-72
2022/07/27 05:39:33;;;;;;;;;;;;;;;21.83;81.07;98620.23;1651467;85;20181;-71
2022/07/27 05:42:01;;;;;;;;;;;;;;;21.82;81.38;98619.41;1652586;85;20221;-72
2022/07/27 05:44:27;;;;;;;;;;;;;;;21.80;81.45;98626.98;1651955;85;21222;-74
2022/07/27 05:46:54;;;;;;;;;;;;;;;21.83;81.65;98624.28;1668561;85;20087;-73
2022/07/27 05:49:20;;;;;;;;;;;;;;;21.81;81.42;98622.39;1678108;85;20125;-73
2022/07/27 05:51:47;;;;;;;;;;;;;;;21.80;81.53;98622.92;1676858;85;20235;-73
2022/07/27 05:54:13;;;;;;;;;;;;;;;21.81;81.28;98622.39;1672378;85;20466;-71
2022/07/27 05:56:40;;;;;;;;;;;;;;;21.84;81.33;98624.58;1669495;85;21164;-72
2022/07/27 05:59:06;;;;;;;;;;;;;;;21.88;81.18;98631.11;1667475;85;20140;-72
2022/07/27 06:01:34;;;;;;;;;;;;;;;21.94;80.96;98633.59;1679010;85;20140;-72
2022/07/27 06:04:00;;;;;;;;;;;;;;;22.02;80.83;98636.34;1674144;85;20165;-70
2022/07/27 06:09:12;;;;;;;;;;;;;;;22.18;80.41;98638.57;1677629;85;20857;-72
2022/07/27 06:11:38;;;;;;;;;;;;;;;22.20;79.65;98642.64;1676652;85;20175;-72
2022/07/27 06:14:04;;;;;;;;;;;;;;;22.19;79.49;98649.12;1669954;85;20153;-74
2022/07/27 06:16:32;;;;;;;;;;;;;;;22.21;79.42;98644.28;1671994;85;20429;-75
2022/07/27 06:18:59;;;;;;;;;;;;;;;22.22;79.29;98646.42;1670091;85;20084;-76
2022/07/27 06:21:27;;;;;;;;;;;;;;;22.17;78.95;98654.00;1651144;85;21217;-74
2022/07/27 06:23:54;;;;;;;;;;;;;;;22.07;78.76;98654.78;1661667;85;20122;-76
2022/07/27 06:26:20;;;;;;;;;;;;;;;21.98;78.85;98656.88;1658461;85;20149;-74
2022/07/27 06:28:46;;;;;;;;;;;;;;;21.93;78.93;98658.21;1653433;85;20083;-75
2022/07/27 06:31:13;;;;;;;;;;;;;;;21.90;79.14;98657.41;1669078;85;20115;-69
2022/07/27 06:33:40;;;;;;;;;;;;;;;21.85;79.34;98653.26;1657732;85;21816;-74
2022/07/27 06:36:08;;;;;;;;;;;;;;;21.85;79.46;98660.02;1654133;85;20759;-72
2022/07/27 06:38:34;;;;;;;;;;;;;;;21.87;79.45;98661.98;1653205;85;20222;-74
2022/07/27 06:41:00;;;;;;;;;;;;;;;21.92;79.57;98668.25;1647482;85;20090;-77
2022/07/27 06:43:30;;;;;;;;;;;;;;;21.97;79.57;98667.45;1652116;85;20137;-77
2022/07/27 06:45:57;;;;;;;;;;;;;;;22.02;79.54;98668.83;1652087;85;21947;-76
2022/07/27 06:48:23;;;;;;;;;;;;;;;22.11;79.24;98668.59;1661467;85;20119;-76
2022/07/27 06:50:51;;;;;;;;;;;;;;;22.18;78.76;98672.42;1651963;85;20102;-76
2022/07/27 06:53:17;;;;;;;;;;;;;;;22.25;78.63;98674.34;1652120;85;20126;-76
2022/07/27 06:55:44;;;;;;;;;;;;;;;22.38;78.68;98677.92;1652135;85;20138;-78
2022/07/27 06:58:11;;;;;;;;;;;;;;;22.52;78.02;98669.05;1652009;85;20102;-77
2022/07/27 07:00:39;;;;;;;;;;;;;;;22.62;77.37;98674.52;1654802;85;20163;-76
2022/07/27 07:03:05;;;;;;;;;;;;;;;22.74;77.06;98676.97;1659400;85;20105;-77
2022/07/27 07:05:35;;;;;;;;;;;;;;;22.93;76.86;98679.46;1659404;85;20107;-76
2022/07/27 07:08:02;;;;;;;;;;;;;;;23.14;76.49;98681.65;1659524;85;20094;-77
2022/07/27 07:10:28;;;;;;;;;;;;;;;23.35;76.16;98677.86;1659589;85;21049;-77
2022/07/27 07:13:00;;;;;;;;;;;;;;;23.52;74.82;98683.84;1654462;85;20456;-77
2022/07/27 07:15:26;;;;;;;;;;;;;;;23.57;73.95;98689.83;1633117;86;20110;-77
2022/07/27 07:17:53;;;;;;;;;;;;;;;23.63;73.71;98687.36;1673148;85;20433;-77
2022/07/27 07:20:21;;;;;;;;;;;;;;;23.64;73.00;98699.86;1659588;85;20098;-77
2022/07/27 07:22:47;;;;;;;;;;;;;;;23.59;72.50;98699.33;1659459;85;21265;-77
2022/07/27 07:25:13;;;;;;;;;;;;;;;23.51;72.32;98701.77;1659431;85;20097;-77
2022/07/27 07:27:41;;;;;;;;;;;;;;;23.43;72.61;98703.67;1659493;85;20416;-76
2022/07/27 07:30:09;;;;;;;;;;;;;;;23.39;72.42;98712.09;1654997;85;20171;-77
2022/07/27 07:32:36;;;;;;;;;;;;;;;23.26;72.38;98716.92;1640938;85;20090;-76
2022/07/27 07:35:03;;;;;;;;;;;;;;;23.21;72.76;98716.10;1660182;85;21879;-77
2022/07/27 07:37:31;;;;;;;;;;;;;;;23.24;73.18;98709.61;1660552;85;20098;-76
2022/07/27 07:39:58;;;;;;;;;;;;;;;23.26;72.84;98709.32;1659669;85;20117;-76
2022/07/27 07:42:24;;;;;;;;;;;;;;;23.31;72.42;98709.32;1661181;85;20489;-76
2022/07/27 07:44:51;;;;;;;;;;;;;;;23.31;72.15;98706.07;1661432;85;20105;-78
2022/07/27 07:47:17;;;;;;;;;;;;;;;23.33;72.25;98712.60;1668591;85;21505;-76
2022/07/27 07:49:43;;;;;;;;;;;;;;;23.36;72.37;98712.03;1659334;85;20182;-77
2022/07/27 07:52:09;;;;;;;;;;;;;;;23.35;71.96;98715.31;1659507;85;20122;-77
2022/07/27 07:54:36;;;;;;;;;;;;;;;23.38;71.82;98709.92;1659503;85;20118;-78
2022/07/27 07:57:02;;;;;;;;;;;;;;;23.38;71.35;98711.81;1659489;86;20143;-77
2022/07/27 07:59:28;;;;;;;;;;;;;;;23.42;71.00;98722.39;1659431;85;21049;-79
2022/07/27 08:01:54;;;;;;;;;;;;;;;23.59;70.55;98725.66;1653292;85;20216;-79
2022/07/27 08:04:21;;;;;;;;;;;;;;;23.98;69.84;98724.77;1643655;85;20109;-77
2022/07/27 08:06:47;;;;;;;;;;;;;;;24.33;68.50;98727.98;1651984;85;20300;-77
2022/07/27 08:09:15;;;;;;;;;;;;;;;24.49;67.33;98729.55;1674550;85;20104;-78
2022/07/27 08:11:42;;;;;;;;;;;;;;;24.62;66.72;98728.67;1633606;85;21071;-77
2022/07/27 08:14:10;;;;;;;;;;;;;;;24.63;66.44;98730.31;1651992;85;20102;-77
2022/07/27 08:16:36;;;;;;;;;;;;;;;24.54;66.29;98737.69;1656254;85;20460;-78
2022/07/27 08:19:03;;;;;;;;;;;;;;;24.37;65.72;98746.73;1663049;85;20110;-77
2022/07/27 08:21:29;;;;;;;;;;;;;;;24.28;66.06;98748.38;1662156;85;20105;-77
2022/07/27 08:23:55;;;;;;;;;;;;;;;24.57;65.60;98745.83;1653362;85;21136;-79
2022/07/27 08:26:22;;;;;;;;;;;;;;;25.08;64.88;98745.86;1653829;85;20114;-77
2022/07/27 08:28:50;;;;;;;;;;;;;;;25.61;62.63;98749.59;1652547;85;20118;-77
2022/07/27 08:31:16;;;;;;;;;;;;;;;25.81;61.24;98751.89;1651936;85;20191;-77
2022/07/27 08:33:42;;;;;;;;;;;;;;;25.66;60.23;98754.19;1652097;85;20102;-76
2022/07/27 08:36:09;;;;;;;;;;;;;;;25.35;60.34;98756.84;1652039;85;21572;-78
2022/07/27 08:38:37;;;;;;;;;;;;;;;25.08;61.10;98762.76;1652009;85;20178;-78
2022/07/27 08:41:03;;;;;;;;;;;;;;;25.04;62.00;98761.67;1652045;85;20106;-77
2022/07/27 08:43:30;;;;;;;;;;;;;;;25.56;61.54;98756.45;1652097;85;20638;-76
2022/07/27 08:45:58;;;;;;;;;;;;;;;26.46;59.57;98754.52;1652012;85;20106;-77
2022/07/27 08:48:25;;;;;;;;;;;;;;;27.35;57.06;98757.13;1661447;85;21238;-76
2022/07/27 08:50:52;;;;;;;;;;;;;;;28.66;53.13;98751.31;1651892;85;20126;-77
2022/07/27 08:53:18;;;;;;;;;;;;;;;30.35;48.79;98745.88;1652195;85;20099;-76
2022/07/27 08:55:46;;;;;;;;;;;;;;;32.00;44.76;98747.98;1652221;85;20465;-77
2022/07/27 08:58:13;;;;;;;;;;;;;;;32.41;43.00;98750.13;1652050;85;20431;-79
2022/07/27 09:00:42;;;;;;;;;;;;;;;32.54;41.94;98752.66;1653226;85;21233;-77
2022/07/27 09:03:12;;;;;;;;;;;;;;;32.67;40.71;98746.12;1659379;85;20101;-80
2022/07/27 09:05:42;;;;;;;;;;;;;;;32.96;37.99;98743.91;1659456;85;20126;-79
2022/07/27 09:08:23;;;;;;;;;;;;;;;32.79;37.48;98750.36;1659385;85;20138;-77
2022/07/27 09:10:49;;;;;;;;;;;;;;;31.99;38.77;98753.23;1659600;85;20102;-74
2022/07/27 09:13:23;;;;;;;;;;;;;;;31.19;40.65;98756.09;1659479;85;21553;-77
2022/07/27 09:15:55;;;;;;;;;;;;;;;30.57;41.87;98751.33;1659512;85;20106;-78
2022/07/27 09:18:23;;;;;;;;;;;;;;;29.62;43.10;98762.88;1673325;85;20082;-76
2022/07/27 09:21:10;;;;;;;;;;;;;;;28.89;44.80;98759.84;1659410;85;20089;-78
2022/07/27 09:23:38;;;;;;;;;;;;;;;28.57;45.96;98762.70;1659571;85;20121;-77
2022/07/27 09:26:26;;;;;;;;;;;;;;;28.64;46.26;98759.02;1659442;85;21233;-77
2022/07/27 09:28:53;;;;;;;;;;;;;;;28.90;45.65;98753.27;1659330;85;20106;-77
2022/07/27 09:31:20;;;;;;;;;;;;;;;28.86;45.52;98759.12;1659374;85;20090;-76
2022/07/27 09:33:48;;;;;;;;;;;;;;;28.85;45.54;98758.86;1659272;85;20872;-77
2022/07/27 09:36:17;;;;;;;;;;;;;;;28.95;45.03;98753.70;1659653;85;36037;-77
2022/07/27 09:39:01;;;;;;;;;;;;;;;28.86;44.89;98759.67;1659503;85;21797;-80
2022/07/27 09:41:28;;;;;;;;;;;;;;;29.05;44.89;98752.92;1659485;85;20107;-77
2022/07/27 09:43:54;;;;;;;;;;;;;;;29.44;44.64;98761.91;1622032;85;20077;-78
2022/07/27 09:46:29;;;;;;;;;;;;;;;29.63;44.07;98761.73;1661454;85;20090;-78
2022/07/27 09:48:56;;;;;;;;;;;;;;;29.67;43.09;98762.75;1665705;85;20435;-78
2022/07/27 09:51:24;;;;;;;;;;;;;;;29.65;42.89;98764.97;1661021;85;21171;-79
2022/07/27 09:53:52;;;;;;;;;;;;;;;29.68;42.93;98772.58;1655093;85;20140;-79
2022/07/27 09:56:25;;;;;;;;;;;;;;;29.72;42.83;98774.95;1658995;85;20130;-77
2022/07/27 09:58:55;;;;;;;;;;;;;;;29.72;43.12;98782.59;1669161;84;20083;-78
2022/07/27 10:01:24;;;;;;;;;;;;;;;29.64;43.73;98789.41;1670707;85;20090;-77
2022/07/27 10:03:52;;;;;;;;;;;;;;;29.56;43.48;98793.70;1654856;85;21198;-76
2022/07/27 10:06:18;;;;;;;;;;;;;;;29.44;43.22;98801.64;1677613;85;20147;-76
2022/07/27 10:08:47;;;;;;;;;;;;;;;29.48;42.92;98805.40;1677785;85;20235;-77
2022/07/27 10:11:14;;;;;;;;;;;;;;;29.43;42.80;98810.18;1679583;85;20469;-79
2022/07/27 10:13:41;;;;;;;;;;;;;;;29.29;42.88;98808.29;1663716;85;20147;-76
2022/07/27 10:16:15;;;;;;;;;;;;;;;29.16;42.57;98809.09;1677943;84;20100;-77
2022/07/27 10:19:01;;;;;;;;;;;;;;;28.97;42.83;98811.14;1661298;84;20251;-76
2022/07/27 10:21:28;;;;;;;;;;;;;;;28.86;42.98;98819.89;1679916;84;20112;-76
2022/07/27 10:23:59;;;;;;;;;;;;;;;28.68;43.24;98816.12;1673908;84;20113;-76
2022/07/27 10:26:32;;;;;;;;;;;;;;;28.48;43.76;98834.27;1652983;85;20105;-79
2022/07/27 10:29:07;;;;;;;;;;;;;;;28.36;44.54;98827.13;1652987;85;21490;-77
2022/07/27 10:31:36;;;;;;;;;;;;;;;28.16;45.22;98832.38;1652755;85;20197;-77
2022/07/27 10:34:04;;;;;;;;;;;;;;;27.99;45.25;98830.74;1653448;85;20199;-76
2022/07/27 10:36:36;;;;;;;;;;;;;;;27.97;45.10;98833.78;1654587;85;20099;-76
2022/07/27 10:39:05;;;;;;;;;;;;;;;28.07;44.34;98835.56;1653579;85;20147;-77
2022/07/27 10:41:34;;;;;;;;;;;;;;;27.98;44.28;98844.14;1653651;87;21133;-76
2022/07/27 10:44:25;;;;;;;;;;;;;;;27.85;44.99;98847.09;1652747;85;20145;-77
2022/07/27 10:46:57;;;;;;;;;;;;;;;27.73;45.35;98855.48;1651169;85;20122;-78
2022/07/27 10:49:27;;;;;;;;;;;;;;;27.46;45.90;98842.49;1650561;87;20122;-77
2022/07/27 10:51:53;;;;;;;;;;;;;;;27.26;45.94;98849.03;1651658;87;20102;-76
2022/07/27 10:54:38;;;;;;;;;;;;;;;27.21;45.86;98849.65;1651188;85;21122;-76
2022/07/27 10:57:06;;;;;;;;;;;;;;;27.22;45.42;98853.44;1650462;85;20115;-76
2022/07/27 10:59:43;;;;;;;;;;;;;;;27.29;44.69;98853.91;1650355;87;20115;-77
2022/07/27 11:02:12;;;;;;;;;;;;;;;27.32;44.80;98853.88;1646832;85;20794;-78
2022/07/27 11:04:47;;;;;;;;;;;;;;;27.32;44.82;98856.61;1664208;84;20111;-77
2022/07/27 11:07:17;;;;;;;;;;;;;;;27.29;45.02;98854.45;1647487;85;21809;-79
2022/07/27 11:09:45;;;;;;;;;;;;;;;27.42;45.23;98854.58;1653842;86;20119;-78
2022/07/27 11:12:11;;;;;;;;;;;;;;;27.68;45.62;98851.47;1664376;85;20104;-76
2022/07/27 11:14:49;;;;;;;;;;;;;;;27.92;44.31;98864.48;1647385;87;20190;-76
2022/07/27 11:17:18;;;;;;;;;;;;;;;28.01;43.80;98864.05;1661442;85;20138;-78
2022/07/27 11:19:44;;;;;;;;;;;;;;;27.99;43.60;98858.08;1627659;86;21175;-76
2022/07/27 11:22:11;;;;;;;;;;;;;;;27.93;43.83;98870.19;1633919;87;20137;-76
2022/07/27 11:24:37;;;;;;;;;;;;;;;27.88;44.04;98873.83;1678923;85;20121;-77
2022/07/27 11:27:03;;;;;;;;;;;;;;;27.88;44.54;98871.09;1671330;85;20677;-79
2022/07/27 11:29:38;;;;;;;;;;;;;;;27.84;44.41;98880.19;1663718;85;20088;-77
2022/07/27 11:32:03;;;;;;;;;;;;;;;27.71;44.63;98876.29;1646591;85;21397;-76
2022/07/27 11:34:31;;;;;;;;;;;;;;;27.71;44.92;98883.13;1675140;85;20170;-79
2022/07/27 11:37:04;;;;;;;;;;;;;;;27.62;44.10;98884.06;1674791;85;20151;-76
2022/07/27 11:39:28;;;;;;;;;;;;;;;27.45;44.30;98885.95;1654179;85;20689;-76
2022/07/27 11:41:55;;;;;;;;;;;;;;;27.44;44.87;98882.41;1673386;85;20425;-76
2022/07/27 11:44:22;;;;;;;;;;;;;;;27.51;45.48;98887.48;1668963;84;21904;-76
2022/07/27 11:46:49;;;;;;;;;;;;;;;27.61;45.09;98887.34;1676459;84;20146;-77
2022/07/27 11:49:30;;;;;;;;;;;;;;;27.65;43.89;98884.30;1692712;84;20432;-76
2022/07/27 11:52:01;;;;;;;;;;;;;;;27.68;43.66;98888.36;1667934;84;20734;-77
2022/07/27 11:54:30;;;;;;;;;;;;;;;27.75;43.45;98888.23;1651764;85;20142;-76
2022/07/27 11:56:59;;;;;;;;;;;;;;;27.78;43.44;98885.47;1648110;85;21131;-77
2022/07/27 11:59:27;;;;;;;;;;;;;;;27.71;42.85;98880.94;1647461;85;20088;-78
2022/07/27 12:01:55;;;;;;;;;;;;;;;27.58;42.96;98892.59;1651843;85;20389;-76
2022/07/27 12:04:27;;;;;;;;;;;;;;;27.48;43.37;98890.25;1649341;85;20442;-78
2022/07/27 12:07:12;;;;;;;;;;;;;;;27.47;43.77;98897.39;1655908;85;20130;-78
2022/07/27 12:09:47;;;;;;;;;;;;;;;27.44;43.67;98894.70;1653504;85;20095;-78
2022/07/27 12:12:17;;;;;;;;;;;;;;;27.36;43.83;98889.03;1656228;85;20110;-76
2022/07/27 12:14:49;;;;;;;;;;;;;;;27.27;44.41;98894.91;1653563;85;20079;-77
2022/07/27 12:17:27;;;;;;;;;;;;;;;27.23;44.64;98891.94;1665753;85;20118;-77
2022/07/27 12:19:59;;;;;;;;;;;;;;;27.25;45.08;98896.55;1662085;85;20101;-77
2022/07/27 12:22:31;;;;;;;;;;;;;;;27.38;45.06;98889.55;1659453;85;21147;-79
2022/07/27 12:24:59;;;;;;;;;;;;;;;27.45;44.82;98887.31;1659342;85;20185;-78
2022/07/27 12:27:26;;;;;;;;;;;;;;;27.50;44.62;98883.97;1659485;85;20114;-77
2022/07/27 12:30:02;;;;;;;;;;;;;;;27.53;43.98;98885.30;1659412;85;20671;-76
2022/07/27 12:32:30;;;;;;;;;;;;;;;27.54;43.86;98884.17;1659488;85;20129;-77
2022/07/27 12:34:57;;;;;;;;;;;;;;;27.56;43.85;98886.05;1659446;85;21150;-77
2022/07/27 12:37:31;;;;;;;;;;;;;;;27.58;44.10;98886.02;1659425;85;20104;-77
2022/07/27 12:39:57;;;;;;;;;;;;;;;27.63;44.02;98886.52;1659460;85;20443;-76
2022/07/27 12:42:34;;;;;;;;;;;;;;;27.65;43.26;98887.02;1659322;85;20196;-75
2022/07/27 12:45:12;;;;;;;;;;;;;;;27.62;43.21;98886.25;1659503;85;20114;-76
2022/07/27 12:47:41;;;;;;;;;;;;;;;27.61;43.18;98895.53;1668041;85;21146;-76
2022/07/27 12:50:15;;;;;;;;;;;;;;;27.62;42.96;98897.17;1659484;85;20177;-78
2022/07/27 12:52:49;;;;;;;;;;;;;;;27.58;42.79;98897.52;1659380;85;20149;-77
2022/07/27 12:55:16;;;;;;;;;;;;;;;27.55;43.12;98889.91;1669128;84;20075;-75
2022/07/27 12:57:43;;;;;;;;;;;;;;;27.52;43.45;98893.22;1669233;84;20180;-76